Dear Valued Visitor,

We have noticed that you are using an ad blocker software.

Although advertisements on the web pages may degrade your experience, our business certainly depends on them and we can only keep providing you high-quality research based articles as long as we can display ads on our pages.

To view this article, you can disable your ad blocker and refresh this page or simply login.

We only allow registered users to use ad blockers. You can sign up for free by clicking here or you can login if you are already a member.

Cytokinetics Inc (CYTK) - Insider Trading

Insider Trading: Sales
Insider Price Amount Relationship Remaining Holdings Date Form 4
$22.16 4,189 Officer, Director 303,633 2020-05-18 Filing
$22.10 811 Officer, Director 303,633 2020-05-18 Filing
$19.47 6,666 Director 0 2020-05-11 Filing
$19.47 3,333 Director 0 2020-05-11 Filing
$20.00 20,000 Director 0 2020-05-11 Filing
$17.00 4,166 Director 0 2020-05-05 Filing
$17.00 4,166 Director 0 2020-05-05 Filing
$14.34 5,000 Officer, Director 304,444 2020-05-01 Filing
$16.00 6,666 Director 0 2020-04-28 Filing
$16.00 3,333 Director 0 2020-04-28 Filing
$14.82 8,000 Director 20,000 2020-03-06 Filing
$15.79 74,893 Large Shareholder 424,419 2020-02-13 Filing
$15.79 510,793 Large Shareholder 2,350,829 2020-02-13 Filing
$15.79 486,344 Large Shareholder 3,131,432 2020-02-13 Filing
$12.96 4,950 Officer, Director 224,107 2020-01-15 Filing
$10.22 6,000 Officer, Director 229,057 2019-12-16 Filing
$9.80 1,500 Officer 121,350 2019-12-05 Filing
$8.08 6,000 Officer, Director 235,057 2019-11-15 Filing
$9.98 1,500 Officer 122,850 2019-11-07 Filing
$11.16 6,000 Officer, Director 238,022 2019-10-15 Filing